Time;durP1;ratioP1;P1;durP2;ratioP2;P2;SDS_P1;SDS_P2;PMS_P1;PMS_P2;Temp;Humidity;BMP_temperature;BMP_pressure;BME280_temperature;BME280_humidity;BME280_pressure;Samples;Min_cycle;Max_cycle;Signal;HPM_P1;HPM_P2
2022/07/28 00:00:37;;;;;;;0.95;0.82;;;13.50;99.90;;;;;;4992078;28;20127;-78
2022/07/28 00:03:03;;;;;;;1.98;1.00;;;13.40;99.90;;;;;;5023726;23;20041;-85
2022/07/28 00:05:28;;;;;;;1.02;0.80;;;13.40;99.90;;;;;;5030703;28;20107;-86
2022/07/28 00:07:55;;;;;;;3.00;1.10;;;13.40;99.90;;;;;;5030780;28;20746;-86
2022/07/28 00:10:21;;;;;;;1.60;1.05;;;13.30;99.90;;;;;;5030180;28;20122;-86
2022/07/28 00:12:47;;;;;;;3.20;1.10;;;13.30;99.90;;;;;;5026623;28;20022;-86
2022/07/28 00:15:13;;;;;;;1.80;1.00;;;13.20;99.90;;;;;;5030887;28;20486;-86
2022/07/28 00:17:38;;;;;;;2.30;0.98;;;13.20;99.90;;;;;;5030608;28;20076;-86
2022/07/28 00:20:05;;;;;;;1.13;0.77;;;13.20;99.90;;;;;;5032256;28;20424;-85
2022/07/28 00:22:31;;;;;;;2.38;1.88;;;13.10;99.90;;;;;;5032180;28;20030;-86
2022/07/28 00:24:57;;;;;;;2.92;1.13;;;13.10;99.90;;;;;;5031930;28;20026;-86
2022/07/28 00:27:23;;;;;;;2.60;1.05;;;13.00;99.90;;;;;;5031917;28;20021;-85
2022/07/28 00:29:49;;;;;;;5.13;1.27;;;13.00;99.90;;;;;;5032168;28;20026;-83
2022/07/28 00:32:15;;;;;;;1.77;0.90;;;12.90;99.90;;;;;;5046973;28;20021;-83
2022/07/28 00:34:42;;;;;;;1.88;1.30;;;12.90;99.90;;;;;;5029866;28;20030;-84
2022/07/28 00:37:07;;;;;;;2.40;1.40;;;12.90;99.90;;;;;;5031670;28;20079;-84
2022/07/28 00:39:33;;;;;;;3.00;1.00;;;12.80;99.90;;;;;;5031946;28;20045;-84
2022/07/28 00:41:59;;;;;;;1.20;1.10;;;12.80;99.90;;;;;;5030323;28;20025;-83
2022/07/28 00:44:25;;;;;;;1.60;0.90;;;12.70;99.90;;;;;;5031552;28;20061;-84
2022/07/28 00:46:51;;;;;;;2.95;0.82;;;12.70;99.90;;;;;;5029870;28;20096;-84
2022/07/28 00:49:17;;;;;;;3.00;1.10;;;12.70;99.90;;;;;;5031029;28;20105;-84
2022/07/28 00:51:43;;;;;;;1.75;1.20;;;12.70;99.90;;;;;;5031702;28;20393;-84
2022/07/28 00:54:08;;;;;;;0.95;0.85;;;12.70;99.90;;;;;;5031439;28;20079;-83
2022/07/28 00:56:34;;;;;;;2.17;1.05;;;12.60;99.90;;;;;;5029815;28;20038;-84
2022/07/28 00:59:00;;;;;;;1.92;1.10;;;12.50;99.90;;;;;;5029806;28;20044;-84
2022/07/28 01:01:26;;;;;;;2.33;0.98;;;12.50;99.90;;;;;;5031119;28;20056;-85
2022/07/28 01:03:59;;;;;;;2.67;1.35;;;12.40;99.90;;;;;;5052440;23;20042;-77
2022/07/28 01:06:37;;;;;;;2.47;0.98;;;12.40;99.90;;;;;;5030491;28;20030;-77
2022/07/28 01:09:23;;;;;;;2.58;1.10;;;12.40;99.90;;;;;;5031088;28;20536;-77
2022/07/28 01:12:01;;;;;;;4.45;1.23;;;12.30;99.90;;;;;;5025601;28;20120;-77
2022/07/28 01:14:54;;;;;;;1.85;1.10;;;12.40;99.90;;;;;;5031206;28;20021;-76
2022/07/28 01:17:42;;;;;;;2.90;1.10;;;12.40;99.90;;;;;;4994492;28;20033;-77
2022/07/28 01:20:17;;;;;;;3.53;1.15;;;12.50;99.90;;;;;;5029559;28;20420;-77
2022/07/28 01:23:21;;;;;;;2.30;1.40;;;12.50;99.90;;;;;;5030122;28;20111;-77
2022/07/28 01:26:33;;;;;;;3.00;1.27;;;12.50;99.90;;;;;;5006899;28;20117;-77
2022/07/28 01:29:26;;;;;;;3.55;1.40;;;12.50;99.90;;;;;;5025181;28;20033;-77
2022/07/28 01:32:12;;;;;;;3.28;1.05;;;12.60;99.90;;;;;;5026214;28;20026;-77
2022/07/28 01:34:54;;;;;;;1.50;1.23;;;12.60;99.90;;;;;;5030138;28;20057;-77
2022/07/28 01:37:26;;;;;;;3.80;1.48;;;12.60;99.90;;;;;;5030319;28;20041;-77
2022/07/28 01:39:55;;;;;;;;;;;12.70;99.90;;;;;;5030755;28;20041;-77
2022/07/28 01:42:25;;;;;;;3.08;1.58;;;12.80;99.90;;;;;;5030456;28;19909;-77
2022/07/28 01:44:53;;;;;;;3.35;1.60;;;12.80;99.90;;;;;;5028988;28;20030;-77
2022/07/28 01:47:20;;;;;;;1.95;1.25;;;13.00;99.90;;;;;;5030540;28;20466;-78
2022/07/28 01:49:49;;;;;;;3.03;1.25;;;13.00;99.90;;;;;;5030393;28;20534;-78
2022/07/28 01:52:17;;;;;;;2.08;1.25;;;13.00;99.90;;;;;;5029975;28;20385;-78
2022/07/28 01:54:45;;;;;;;4.13;1.58;;;12.90;99.90;;;;;;5028961;28;20037;-78
2022/07/28 01:57:13;;;;;;;3.58;1.30;;;12.80;99.90;;;;;;5030456;28;20099;-77
2022/07/28 01:59:40;;;;;;;1.20;1.10;;;12.70;99.90;;;;;;5028888;28;20034;-78
2022/07/28 02:04:50;;;;;;;1.25;1.10;;;12.70;99.90;;;;;;5011760;28;20061;-88
2022/07/28 02:07:19;;;;;;;3.03;1.73;;;12.70;99.90;;;;;;5009658;28;20025;-88
2022/07/28 02:09:46;;;;;;;4.93;1.20;;;12.80;99.90;;;;;;5011528;28;20022;-89
2022/07/28 02:12:16;;;;;;;3.03;1.55;;;12.80;99.90;;;;;;5027049;28;20471;-88
2022/07/28 02:14:45;;;;;;;1.40;1.30;;;12.70;99.90;;;;;;5011533;28;20650;-86
2022/07/28 02:17:15;;;;;;;2.40;1.27;;;12.80;99.90;;;;;;5009945;28;20021;-86
2022/07/28 02:19:42;;;;;;;1.90;1.40;;;12.70;99.90;;;;;;5011114;28;20438;-87
2022/07/28 02:22:09;;;;;;;3.47;1.33;;;12.70;99.90;;;;;;5011800;28;20022;-86
2022/07/28 02:24:37;;;;;;;2.33;1.65;;;12.70;99.90;;;;;;5010819;28;20037;-86
2022/07/28 02:27:14;;;;;;;3.58;1.30;;;12.60;99.90;;;;;;5011374;28;20402;-86
2022/07/28 02:29:48;;;;;;;4.10;1.10;;;12.60;99.90;;;;;;5009918;28;20026;-87
2022/07/28 02:32:20;;;;;;;1.67;1.25;;;12.50;99.90;;;;;;5009758;28;20463;-86
2022/07/28 02:34:48;;;;;;;4.70;1.55;;;12.60;99.90;;;;;;5011517;28;20029;-87
2022/07/28 02:37:15;;;;;;;3.00;1.17;;;12.60;99.90;;;;;;5026117;28;20026;-87
2022/07/28 02:39:45;;;;;;;0.88;0.88;;;12.50;99.90;;;;;;5010236;28;20038;-88
2022/07/28 02:42:19;;;;;;;3.63;1.42;;;12.50;99.90;;;;;;5010505;28;20032;-87
2022/07/28 02:45:08;;;;;;;4.03;1.40;;;12.50;99.90;;;;;;5010570;28;20029;-86
2022/07/28 02:47:41;;;;;;;3.17;1.45;;;12.40;99.90;;;;;;5010254;28;20042;-86
2022/07/28 02:50:07;;;;;;;2.88;1.52;;;12.40;99.90;;;;;;5009805;28;20482;-86
2022/07/28 02:52:34;;;;;;;1.92;1.42;;;12.40;99.90;;;;;;5025864;28;20481;-85
2022/07/28 02:55:02;;;;;;;2.45;1.20;;;12.30;99.90;;;;;;5010658;28;20026;-86
2022/07/28 02:57:29;;;;;;;4.60;1.60;;;12.30;99.90;;;;;;5009515;28;20597;-86
2022/07/28 02:59:56;;;;;;;2.67;1.27;;;12.20;99.90;;;;;;5010575;28;20482;-86
2022/07/28 03:04:55;;;;;;;3.60;1.70;;;12.00;99.90;;;;;;5007544;28;20057;-77
2022/07/28 03:07:21;;;;;;;2.42;1.25;;;12.10;99.90;;;;;;5009487;28;20033;-77
2022/07/28 03:09:47;;;;;;;1.20;1.10;;;12.10;99.90;;;;;;5009725;28;20037;-77
2022/07/28 03:12:13;;;;;;;2.20;1.42;;;12.10;99.90;;;;;;5009690;28;20443;-77
2022/07/28 03:14:40;;;;;;;3.08;1.10;;;12.10;99.90;;;;;;4989644;28;20023;-77
2022/07/28 03:17:06;;;;;;;2.40;1.33;;;12.10;99.90;;;;;;4989862;28;20037;-77
2022/07/28 03:19:32;;;;;;;2.42;1.23;;;12.20;99.90;;;;;;4992144;28;20038;-77
2022/07/28 03:21:58;;;;;;;2.30;1.33;;;12.20;99.90;;;;;;4993253;28;20033;-77
2022/07/28 03:24:28;;;;;;;2.25;1.38;;;12.20;99.90;;;;;;4993951;28;20062;-77
2022/07/28 03:27:10;;;;;;;3.38;1.60;;;12.20;99.90;;;;;;4993676;28;20479;-77
2022/07/28 03:29:37;;;;;;;1.70;1.60;;;12.20;99.90;;;;;;4993496;28;20141;-77
2022/07/28 03:32:03;;;;;;;2.05;1.35;;;12.30;99.90;;;;;;4993461;28;20019;-77
2022/07/28 03:34:30;;;;;;;3.22;1.45;;;12.30;99.90;;;;;;4993212;28;20030;-76
2022/07/28 03:37:11;;;;;;;2.58;1.55;;;12.30;99.90;;;;;;4991712;28;20030;-77
2022/07/28 03:39:44;;;;;;;6.13;1.50;;;12.40;99.90;;;;;;4992840;28;20028;-77
2022/07/28 03:42:11;;;;;;;3.20;1.17;;;12.40;99.90;;;;;;4993095;28;20119;-76
2022/07/28 03:44:38;;;;;;;6.80;2.15;;;12.50;99.90;;;;;;4993048;28;20034;-77
2022/07/28 03:47:04;;;;;;;3.13;2.00;;;12.60;99.90;;;;;;4993432;28;20042;-76
2022/07/28 03:49:30;;;;;;;4.90;1.80;;;12.70;99.90;;;;;;4992681;28;20112;-77
2022/07/28 03:51:56;;;;;;;2.35;1.67;;;12.70;99.90;;;;;;4992565;28;20112;-77
2022/07/28 03:54:22;;;;;;;3.45;1.23;;;12.80;99.90;;;;;;4992712;28;20029;-77
2022/07/28 03:56:47;;;;;;;4.63;1.20;;;12.80;99.90;;;;;;4992620;28;20018;-77
2022/07/28 03:59:13;;;;;;;5.82;1.75;;;12.80;99.90;;;;;;4992786;28;20037;-76
2022/07/28 04:01:39;;;;;;;2.53;1.38;;;12.90;99.90;;;;;;4992773;28;20036;-77
2022/07/28 04:04:05;;;;;;;2.28;1.58;;;12.90;99.90;;;;;;5037006;23;20124;-88
2022/07/28 04:06:30;;;;;;;2.55;1.63;;;12.80;99.90;;;;;;5033193;28;20045;-88
2022/07/28 04:08:56;;;;;;;1.83;1.40;;;12.80;99.90;;;;;;5033710;28;20017;-88
2022/07/28 04:11:22;;;;;;;2.15;1.60;;;12.80;99.90;;;;;;5033178;28;20032;-89
2022/07/28 04:13:47;;;;;;;3.30;1.50;;;12.80;99.90;;;;;;5032089;28;20033;-89
2022/07/28 04:16:13;;;;;;;4.93;1.50;;;12.70;99.90;;;;;;5032190;28;20022;-89
2022/07/28 04:18:39;;;;;;;1.40;1.30;;;12.70;99.90;;;;;;5031596;28;20022;-87
2022/07/28 04:21:05;;;;;;;3.63;1.65;;;12.70;99.90;;;;;;5032983;28;20025;-88
2022/07/28 04:23:31;;;;;;;2.95;1.30;;;12.60;99.90;;;;;;5032040;28;20039;-88
2022/07/28 04:25:57;;;;;;;5.43;1.85;;;12.50;99.90;;;;;;5031999;28;20028;-88
2022/07/28 04:28:23;;;;;;;3.00;1.50;;;12.50;99.90;;;;;;5038116;28;20025;-88
2022/07/28 04:30:48;;;;;;;5.03;1.80;;;12.50;99.90;;;;;;5031196;28;20018;-89
2022/07/28 04:33:14;;;;;;;1.30;1.20;;;12.50;99.90;;;;;;5031304;28;20108;-88
2022/07/28 04:35:40;;;;;;;2.72;1.48;;;12.50;99.90;;;;;;5032772;28;20025;-88
2022/07/28 04:38:06;;;;;;;2.50;1.25;;;12.50;99.90;;;;;;5032007;28;20104;-89
2022/07/28 04:40:33;;;;;;;2.53;1.15;;;12.50;99.90;;;;;;5030916;28;20079;-86
2022/07/28 04:42:59;;;;;;;4.05;1.40;;;12.60;99.90;;;;;;5032554;28;20018;-88
2022/07/28 04:45:25;;;;;;;3.58;1.50;;;12.70;99.90;;;;;;5032753;28;20033;-88
2022/07/28 04:47:52;;;;;;;4.85;1.55;;;12.80;99.90;;;;;;5032281;28;20111;-88
2022/07/28 04:50:20;;;;;;;1.90;1.70;;;12.90;99.90;;;;;;5031440;28;20044;-89
2022/07/28 04:52:49;;;;;;;3.15;1.60;;;12.90;99.90;;;;;;5031325;28;20017;-89
2022/07/28 04:55:15;;;;;;;1.42;1.30;;;12.90;99.90;;;;;;5025105;28;20037;-88
2022/07/28 04:57:42;;;;;;;4.88;1.80;;;13.00;99.90;;;;;;5031414;28;20018;-88
2022/07/28 05:00:12;;;;;;;5.40;1.63;;;13.00;99.90;;;;;;5028572;28;20033;-89
2022/07/28 05:02:43;;;;;;;2.43;1.50;;;13.10;99.90;;;;;;5052055;23;20025;-76
2022/07/28 05:05:10;;;;;;;5.18;1.90;;;13.20;99.90;;;;;;5028979;28;20041;-77
2022/07/28 05:07:37;;;;;;;4.22;1.75;;;13.20;99.90;;;;;;5030944;28;20632;-77
2022/07/28 05:10:04;;;;;;;4.47;1.50;;;13.30;99.90;;;;;;5030214;28;20033;-77
2022/07/28 05:12:30;;;;;;;2.28;1.40;;;13.30;99.90;;;;;;5045550;28;20029;-77
2022/07/28 05:14:56;;;;;;;3.47;1.67;;;13.30;99.90;;;;;;5013028;28;20037;-77
2022/07/28 05:17:22;;;;;;;4.40;2.28;;;13.30;99.90;;;;;;5011586;28;20030;-77
2022/07/28 05:19:47;;;;;;;4.43;1.60;;;13.40;99.90;;;;;;5011268;28;20033;-78
2022/07/28 05:22:13;;;;;;;2.58;1.20;;;13.50;99.90;;;;;;5011412;28;20026;-77
2022/07/28 05:24:39;;;;;;;1.58;1.05;;;13.60;99.90;;;;;;5011563;28;20439;-77
2022/07/28 05:27:04;;;;;;;3.53;1.70;;;13.60;99.90;;;;;;5011517;28;20030;-77
2022/07/28 05:29:30;;;;;;;3.03;1.63;;;13.70;99.90;;;;;;5011944;28;20054;-77
2022/07/28 05:31:56;;;;;;;4.13;1.08;;;13.80;99.90;;;;;;5011772;28;20034;-77
2022/07/28 05:34:21;;;;;;;5.88;1.40;;;14.00;99.90;;;;;;5010402;28;20072;-77
2022/07/28 05:36:47;;;;;;;1.65;1.23;;;14.10;99.90;;;;;;5011346;28;20022;-77
2022/07/28 05:39:14;;;;;;;4.13;1.40;;;14.20;99.90;;;;;;5011250;28;20046;-77
2022/07/28 05:41:40;;;;;;;5.22;1.58;;;14.40;99.90;;;;;;5010721;28;20030;-77
2022/07/28 05:44:06;;;;;;;4.03;1.20;;;14.50;99.90;;;;;;5008689;28;20073;-77
2022/07/28 05:46:32;;;;;;;2.50;1.42;;;14.70;99.90;;;;;;5011385;28;20489;-77
2022/07/28 05:48:57;;;;;;;2.33;1.50;;;14.80;99.90;;;;;;5011267;28;20072;-77
2022/07/28 05:51:23;;;;;;;2.35;1.30;;;14.90;99.90;;;;;;5011263;28;20091;-77
2022/07/28 05:53:49;;;;;;;3.22;1.27;;;15.00;99.90;;;;;;5011110;28;20085;-77
2022/07/28 05:56:14;;;;;;;2.83;1.58;;;15.10;99.90;;;;;;5010953;28;20033;-77
2022/07/28 05:58:40;;;;;;;4.47;1.20;;;15.20;99.90;;;;;;5011097;28;20032;-77
2022/07/28 06:01:06;;;;;;;2.95;1.35;;;15.40;99.90;;;;;;5010651;28;20102;-77
2022/07/28 06:03:33;;;;;;;1.23;1.13;;;15.60;99.90;;;;;;5035872;22;20137;-88
2022/07/28 06:05:59;;;;;;;2.47;1.20;;;15.70;99.90;;;;;;5031487;28;20029;-88
2022/07/28 06:08:25;;;;;;;2.95;1.77;;;15.90;99.90;;;;;;5029842;28;20382;-88
2022/07/28 06:11:10;;;;;;;2.85;1.27;;;16.00;99.90;;;;;;5030370;28;20025;-88
2022/07/28 06:13:37;;;;;;;4.00;1.48;;;16.10;99.90;;;;;;5029875;28;20136;-87
2022/07/28 06:16:07;;;;;;;1.33;1.23;;;16.20;99.90;;;;;;5030931;28;20079;-88
2022/07/28 06:18:32;;;;;;;3.85;1.23;;;16.30;99.90;;;;;;5031007;28;20056;-88
2022/07/28 06:20:58;;;;;;;1.35;1.00;;;16.40;99.90;;;;;;5030760;28;20025;-88
2022/07/28 06:23:24;;;;;;;3.05;1.20;;;16.50;99.90;;;;;;5029649;28;20025;-88
2022/07/28 06:25:50;;;;;;;2.88;1.48;;;16.50;99.90;;;;;;5030173;28;20530;-89
2022/07/28 06:28:20;;;;;;;6.40;1.00;;;16.60;99.90;;;;;;5031344;28;20044;-88
2022/07/28 06:30:49;;;;;;;4.63;1.33;;;16.60;99.90;;;;;;5031176;28;20030;-88
2022/07/28 06:33:16;;;;;;;3.72;1.50;;;16.70;99.90;;;;;;5031448;28;20091;-88
2022/07/28 06:35:42;;;;;;;2.85;1.55;;;16.70;99.90;;;;;;5034076;28;20104;-89
2022/07/28 06:38:08;;;;;;;3.67;1.20;;;16.80;99.90;;;;;;5031607;28;20041;-89
2022/07/28 06:40:33;;;;;;;2.30;1.30;;;16.90;99.90;;;;;;5031653;28;20080;-89
2022/07/28 06:42:59;;;;;;;3.53;1.25;;;17.10;99.90;;;;;;5030681;28;20053;-90
2022/07/28 06:45:25;;;;;;;1.85;1.10;;;17.10;99.90;;;;;;5031609;28;20022;-89
2022/07/28 06:47:52;;;;;;;3.45;1.50;;;17.30;99.90;;;;;;5031414;28;20014;-90
2022/07/28 06:50:18;;;;;;;3.78;1.30;;;17.30;99.90;;;;;;5031138;28;20025;-88
2022/07/28 06:52:43;;;;;;;4.38;1.30;;;17.40;99.90;;;;;;5030252;28;20033;-89
2022/07/28 06:55:10;;;;;;;3.58;1.30;;;17.50;99.90;;;;;;5033764;28;20025;-88
2022/07/28 06:57:36;;;;;;;1.80;1.20;;;17.60;99.90;;;;;;5033478;28;20120;-88
2022/07/28 07:00:05;;;;;;;1.95;1.20;;;17.80;99.90;;;;;;5034573;28;20113;-87
2022/07/28 07:05:08;;;;;;;2.22;1.00;;;18.00;99.90;;;;;;5027275;28;20065;-78
2022/07/28 07:07:34;;;;;;;3.55;1.17;;;18.10;99.90;;;;;;5033004;28;20072;-78
2022/07/28 07:10:00;;;;;;;1.92;1.35;;;18.20;99.90;;;;;;5033525;28;20021;-79
2022/07/28 07:12:26;;;;;;;4.45;1.08;;;18.30;99.90;;;;;;5031424;28;20026;-77
2022/07/28 07:14:52;;;;;;;3.03;1.52;;;18.40;99.90;;;;;;5031092;28;20028;-77
2022/07/28 07:17:18;;;;;;;2.47;1.05;;;18.40;99.90;;;;;;5033897;28;20037;-77
2022/07/28 07:19:44;;;;;;;2.40;1.23;;;18.50;99.90;;;;;;5024785;28;20411;-77
2022/07/28 07:22:13;;;;;;;2.78;1.30;;;18.70;99.90;;;;;;5031541;28;20022;-76
2022/07/28 07:24:38;;;;;;;3.78;1.13;;;18.90;99.90;;;;;;5031734;28;20040;-77
2022/07/28 07:27:04;;;;;;;2.78;0.90;;;19.00;99.90;;;;;;5032637;28;20017;-76
2022/07/28 07:29:30;;;;;;;3.20;1.20;;;19.10;99.90;;;;;;5032226;28;20026;-76
2022/07/28 07:31:57;;;;;;;1.60;0.95;;;19.20;99.90;;;;;;5031646;28;20057;-77
2022/07/28 07:34:23;;;;;;;2.95;1.23;;;19.20;99.90;;;;;;5032091;28;20095;-76
2022/07/28 07:36:48;;;;;;;3.55;1.50;;;19.30;99.90;;;;;;5030533;28;20424;-77
2022/07/28 07:39:14;;;;;;;3.22;1.10;;;19.40;99.90;;;;;;5029451;28;20032;-77
2022/07/28 07:41:40;;;;;;;3.83;1.25;;;19.60;99.90;;;;;;5028909;28;20398;-77
2022/07/28 07:44:08;;;;;;;2.28;1.02;;;19.60;99.90;;;;;;5031541;28;20068;-77
2022/07/28 07:46:35;;;;;;;1.55;1.15;;;19.80;99.90;;;;;;5031641;28;20037;-77
2022/07/28 07:49:01;;;;;;;2.08;1.10;;;19.90;99.90;;;;;;5032841;28;20025;-77
2022/07/28 07:51:26;;;;;;;2.28;1.13;;;20.00;99.90;;;;;;5033150;28;20075;-77
2022/07/28 07:53:52;;;;;;;2.72;1.15;;;20.00;99.90;;;;;;5033136;28;20025;-77
2022/07/28 07:56:18;;;;;;;8.90;1.67;;;20.00;99.90;;;;;;5033350;28;20116;-77
2022/07/28 07:58:43;;;;;;;5.85;1.48;;;20.10;99.90;;;;;;5032441;28;20458;-77
2022/07/28 08:01:11;;;;;;;5.88;1.48;;;20.10;99.90;;;;;;5032020;28;20034;-77
2022/07/28 08:03:37;;;;;;;3.97;1.52;;;20.30;99.90;;;;;;5052689;23;20529;-85
2022/07/28 08:06:02;;;;;;;2.10;1.00;;;20.40;99.90;;;;;;5010916;28;20097;-85
2022/07/28 08:08:28;;;;;;;7.53;1.85;;;20.60;99.90;;;;;;5013253;28;20030;-84
2022/07/28 08:10:54;;;;;;;2.15;1.00;;;20.70;99.90;;;;;;5019625;28;20025;-83
2022/07/28 08:13:20;;;;;;;1.50;1.00;;;20.90;99.90;;;;;;5013002;28;20029;-84
2022/07/28 08:15:46;;;;;;;2.88;1.10;;;21.00;96.90;;;;;;5011709;28;20060;-86
2022/07/28 08:18:11;;;;;;;1.85;1.42;;;21.20;99.40;;;;;;5012453;28;20018;-84
2022/07/28 08:20:37;;;;;;;1.75;1.13;;;21.30;97.80;;;;;;5009055;28;20061;-84
2022/07/28 08:23:03;;;;;;;2.92;0.90;;;21.60;96.60;;;;;;5006420;28;20372;-85
2022/07/28 08:25:28;;;;;;;2.67;1.00;;;21.90;97.30;;;;;;5005319;28;20022;-84
2022/07/28 08:27:54;;;;;;;1.80;0.90;;;21.90;82.70;;;;;;5004718;28;20034;-84
2022/07/28 08:30:20;;;;;;;2.45;0.93;;;21.90;85.40;;;;;;5011451;28;20374;-83
2022/07/28 08:32:46;;;;;;;4.45;1.17;;;21.80;79.10;;;;;;5005549;28;20026;-84
2022/07/28 08:35:12;;;;;;;1.63;0.70;;;21.90;74.00;;;;;;5007930;28;20014;-83
2022/07/28 08:37:38;;;;;;;2.38;1.00;;;22.20;75.80;;;;;;5008716;28;20040;-84
2022/07/28 08:40:10;;;;;;;1.08;0.70;;;22.30;77.80;;;;;;5009421;28;20042;-84
2022/07/28 08:43:14;;;;;;;;;;;22.60;79.60;;;;;;5012142;28;20018;-82
2022/07/28 08:45:44;;;;;;;1.73;0.80;;;22.60;71.30;;;;;;4969816;28;19906;-85
2022/07/28 08:48:11;;;;;;;1.75;0.60;;;22.80;65.80;;;;;;4953322;28;20533;-85
2022/07/28 08:50:38;;;;;;;5.82;0.93;;;23.00;67.20;;;;;;4981740;28;20062;-84
2022/07/28 08:53:05;;;;;;;6.53;1.35;;;23.00;67.10;;;;;;5027632;28;20112;-85
2022/07/28 08:55:31;;;;;;;4.47;1.30;;;23.20;67.40;;;;;;5024525;28;20022;-82
2022/07/28 08:57:58;;;;;;;2.00;0.80;;;23.60;66.00;;;;;;5007220;28;20364;-83
2022/07/28 09:00:25;;;;;;;3.05;0.90;;;23.80;62.50;;;;;;5009579;28;20030;-84
2022/07/28 09:02:51;;;;;;;7.90;1.23;;;23.80;61.50;;;;;;5023559;23;20045;-77
2022/07/28 09:05:21;;;;;;;1.42;0.50;;;24.10;60.60;;;;;;5043970;28;20036;-76
2022/07/28 09:07:51;;;;;;;3.08;0.85;;;24.00;60.00;;;;;;5050611;28;20048;-75
2022/07/28 09:10:18;;;;;;;1.50;0.70;;;23.90;59.50;;;;;;5047961;28;20063;-75
2022/07/28 09:12:44;;;;;;;2.08;0.88;;;24.00;62.50;;;;;;5051247;28;20077;-75
2022/07/28 09:15:12;;;;;;;2.67;0.95;;;24.10;61.10;;;;;;5051487;28;20029;-75
2022/07/28 09:17:39;;;;;;;2.63;0.70;;;24.00;57.10;;;;;;5051353;28;20033;-75
2022/07/28 09:20:06;;;;;;;2.72;0.60;;;24.30;58.10;;;;;;5050580;28;20512;-75
2022/07/28 09:22:32;;;;;;;3.33;0.85;;;24.20;55.30;;;;;;5048566;28;20105;-74
2022/07/28 09:25:01;;;;;;;1.38;0.63;;;24.10;52.50;;;;;;5050720;28;20013;-75
2022/07/28 09:27:26;;;;;;;2.60;0.60;;;24.00;52.90;;;;;;5051071;28;20016;-75
2022/07/28 09:29:59;;;;;;;1.65;0.60;;;24.00;52.40;;;;;;5051411;28;20522;-75
2022/07/28 09:32:26;;;;;;;3.25;0.70;;;24.10;53.80;;;;;;5047131;28;20048;-75
2022/07/28 09:34:52;;;;;;;1.02;0.63;;;24.30;51.10;;;;;;5050956;28;20390;-75
2022/07/28 09:37:24;;;;;;;3.10;0.63;;;24.30;53.10;;;;;;5051234;28;20020;-74
2022/07/28 09:39:51;;;;;;;;;;;24.00;51.80;;;;;;5046603;28;20060;-75
2022/07/28 09:42:18;;;;;;;4.13;0.98;;;24.40;52.10;;;;;;5051052;28;19970;-74
2022/07/28 09:44:45;;;;;;;2.90;0.77;;;24.60;49.90;;;;;;5066020;28;20059;-75
2022/07/28 09:47:25;;;;;;;3.35;0.63;;;24.70;50.30;;;;;;5050922;28;20410;-76
2022/07/28 09:49:51;;;;;;;2.35;0.57;;;24.70;49.80;;;;;;5041358;28;20104;-75
2022/07/28 09:52:37;;;;;;;1.73;1.13;;;24.90;48.10;;;;;;5066030;28;20523;-77
2022/07/28 09:55:08;;;;;;;0.68;0.43;;;25.20;48.30;;;;;;5050801;28;20028;-74
2022/07/28 09:57:36;;;;;;;1.65;0.50;;;25.40;47.90;;;;;;5049285;28;20159;-75
2022/07/28 10:00:06;;;;;;;2.72;0.60;;;25.50;48.10;;;;;;5049970;28;20103;-76
2022/07/28 10:02:32;;;;;;;2.00;0.60;;;25.70;43.10;;;;;;5050573;28;20092;-75
2022/07/28 10:04:59;;;;;;;1.67;0.57;;;25.60;41.00;;;;;;5049412;28;20105;-74
2022/07/28 10:07:29;;;;;;;0.90;0.32;;;25.50;39.60;;;;;;5050492;28;20104;-74
2022/07/28 10:10:00;;;;;;;2.10;0.47;;;25.70;42.20;;;;;;5049301;28;20082;-75
2022/07/28 10:12:29;;;;;;;2.17;0.45;;;25.80;42.70;;;;;;5050263;28;20021;-73
2022/07/28 10:15:00;;;;;;;4.13;0.63;;;25.50;40.40;;;;;;5050216;28;20040;-74
2022/07/28 10:17:43;;;;;;;1.17;0.40;;;25.20;40.20;;;;;;5050640;28;20029;-74
2022/07/28 10:20:09;;;;;;;0.95;0.40;;;25.20;41.90;;;;;;5049746;28;20365;-74
2022/07/28 10:22:37;;;;;;;0.95;0.30;;;25.30;41.10;;;;;;5050132;28;20047;-74
2022/07/28 10:25:08;;;;;;;2.53;0.80;;;25.50;43.00;;;;;;5049309;28;20139;-73
2022/07/28 10:27:35;;;;;;;2.78;0.50;;;25.80;43.00;;;;;;5049800;28;20025;-74
2022/07/28 10:30:03;;;;;;;1.33;0.45;;;25.80;40.00;;;;;;5049640;28;20029;-74
2022/07/28 10:32:35;;;;;;;0.80;0.32;;;26.00;40.00;;;;;;5043565;28;20017;-74
2022/07/28 10:35:10;;;;;;;1.20;0.52;;;26.10;39.70;;;;;;5038734;23;20061;-84
2022/07/28 10:38:03;;;;;;;2.17;0.50;;;26.40;41.80;;;;;;5009498;28;20072;-83
2022/07/28 10:40:37;;;;;;;1.50;0.50;;;26.50;39.30;;;;;;5004978;28;20495;-83
2022/07/28 10:43:04;;;;;;;1.17;0.30;;;27.00;37.50;;;;;;5011069;28;20125;-83
2022/07/28 10:45:30;;;;;;;1.08;0.40;;;27.20;38.20;;;;;;5009495;28;20105;-83
2022/07/28 10:47:57;;;;;;;2.05;0.40;;;27.30;37.60;;;;;;5010079;28;20014;-82
2022/07/28 10:50:23;;;;;;;2.85;0.50;;;27.30;35.30;;;;;;5009747;28;20045;-83
2022/07/28 10:52:49;;;;;;;2.35;0.32;;;27.20;37.00;;;;;;5011052;28;20019;-82
2022/07/28 10:55:40;;;;;;;3.70;0.60;;;27.10;35.90;;;;;;5011109;28;20060;-82
2022/07/28 10:58:06;;;;;;;0.73;0.30;;;27.50;37.10;;;;;;5005684;28;20080;-82
2022/07/28 11:00:34;;;;;;;1.83;0.47;;;27.40;36.40;;;;;;5009690;28;20030;-82
2022/07/28 11:03:01;;;;;;;1.42;0.40;;;27.60;35.90;;;;;;5010864;28;20045;-82
2022/07/28 11:05:33;;;;;;;1.70;0.40;;;27.50;35.90;;;;;;5011090;28;20026;-82
2022/07/28 11:08:04;;;;;;;2.35;0.50;;;27.30;34.90;;;;;;5011007;28;20065;-82
2022/07/28 11:10:42;;;;;;;1.13;0.43;;;27.00;38.40;;;;;;5009316;28;20116;-83
2022/07/28 11:13:32;;;;;;;2.63;0.60;;;26.80;36.20;;;;;;5010399;28;20266;-83
2022/07/28 11:16:20;;;;;;;2.17;0.47;;;26.40;37.50;;;;;;5010477;28;20028;-82
2022/07/28 11:19:07;;;;;;;2.15;0.40;;;25.90;37.50;;;;;;5009566;28;20021;-82
2022/07/28 11:21:34;;;;;;;1.83;0.70;;;25.60;38.10;;;;;;5010143;28;20083;-82
2022/07/28 11:24:00;;;;;;;1.38;0.88;;;25.30;40.20;;;;;;5010230;28;20052;-82
2022/07/28 11:26:33;;;;;;;1.15;0.50;;;25.10;40.90;;;;;;5010202;28;20534;-82
2022/07/28 11:28:59;;;;;;;1.55;1.05;;;25.20;39.30;;;;;;5010591;28;20042;-81
2022/07/28 11:31:43;;;;;;;1.92;0.55;;;25.10;42.20;;;;;;5010180;28;20397;-82
2022/07/28 11:34:20;;;;;;;1.70;0.50;;;25.00;41.80;;;;;;5034348;23;20241;-74
2022/07/28 11:37:04;;;;;;;2.45;0.50;;;24.90;40.60;;;;;;5029992;28;20025;-73
2022/07/28 11:39:34;;;;;;;0.50;0.40;;;24.90;40.70;;;;;;5030941;28;20068;-74
2022/07/28 11:42:22;;;;;;;2.00;0.52;;;24.60;39.50;;;;;;5033484;28;20036;-74
2022/07/28 11:44:48;;;;;;;1.75;0.77;;;24.50;41.10;;;;;;5016686;28;20026;-73
2022/07/28 11:47:18;;;;;;;1.17;0.40;;;24.60;43.50;;;;;;5013975;28;20394;-74
2022/07/28 11:50:05;;;;;;;0.82;0.35;;;24.50;41.90;;;;;;5005855;28;20022;-73
2022/07/28 11:52:31;;;;;;;4.25;0.80;;;24.40;42.20;;;;;;5006585;28;20053;-74
2022/07/28 11:54:57;;;;;;;0.22;0.22;;;24.30;43.80;;;;;;5012455;28;20378;-73
2022/07/28 11:57:25;;;;;;;0.43;0.43;;;24.20;40.70;;;;;;5012132;28;20434;-73
2022/07/28 11:59:53;;;;;;;2.00;0.63;;;24.30;42.30;;;;;;5012914;28;20026;-74
2022/07/28 12:02:22;;;;;;;1.08;0.45;;;24.40;42.90;;;;;;5013481;28;20424;-73
2022/07/28 12:05:06;;;;;;;2.10;0.85;;;24.50;40.40;;;;;;5013541;28;20112;-74
2022/07/28 12:07:34;;;;;;;1.50;0.47;;;24.30;41.00;;;;;;5012251;28;20029;-74
2022/07/28 12:10:00;;;;;;;1.00;0.55;;;24.10;41.10;;;;;;5013665;28;20033;-74
2022/07/28 12:12:27;;;;;;;1.10;0.50;;;24.30;41.70;;;;;;5013643;28;20033;-74
2022/07/28 12:14:55;;;;;;;0.75;0.30;;;24.50;41.70;;;;;;5012843;28;20018;-73
2022/07/28 12:17:22;;;;;;;1.60;0.50;;;24.60;43.30;;;;;;5012500;28;20026;-74
2022/07/28 12:19:47;;;;;;;2.53;0.70;;;24.50;42.30;;;;;;5013595;28;20022;-73
2022/07/28 12:22:13;;;;;;;3.00;0.60;;;24.40;42.50;;;;;;5013471;28;20494;-73
2022/07/28 12:24:39;;;;;;;1.63;0.75;;;24.40;43.20;;;;;;5013249;28;20049;-74
2022/07/28 12:27:05;;;;;;;2.92;0.50;;;24.60;43.70;;;;;;5013598;28;20029;-74
2022/07/28 12:29:31;;;;;;;2.25;0.60;;;24.40;42.80;;;;;;5013107;28;20022;-74
2022/07/28 12:32:05;;;;;;;2.20;0.93;;;24.50;42.40;;;;;;5012914;28;20026;-74
2022/07/28 12:34:33;;;;;;;1.88;0.50;;;24.30;42.50;;;;;;5048923;23;20049;-81
2022/07/28 12:37:01;;;;;;;3.30;0.60;;;24.60;43.60;;;;;;5025824;28;20546;-81
2022/07/28 12:39:29;;;;;;;4.88;0.73;;;24.70;42.50;;;;;;5030649;28;20042;-82
2022/07/28 12:42:10;;;;;;;2.50;0.40;;;24.90;43.10;;;;;;5032329;28;20018;-82
2022/07/28 12:44:43;;;;;;;2.97;0.60;;;25.50;43.30;;;;;;5025017;28;20075;-82
2022/07/28 12:47:11;;;;;;;2.42;0.57;;;25.90;40.50;;;;;;5013652;28;20119;-81
2022/07/28 12:49:38;;;;;;;2.00;0.60;;;26.10;39.40;;;;;;5012295;28;20029;-83
2022/07/28 12:52:19;;;;;;;2.33;0.50;;;26.30;38.50;;;;;;5012972;28;20632;-83
2022/07/28 12:54:45;;;;;;;1.10;0.57;;;26.60;38.60;;;;;;5011776;28;20033;-83
2022/07/28 12:57:11;;;;;;;3.75;0.70;;;26.60;39.30;;;;;;5011920;28;20096;-82
2022/07/28 12:59:38;;;;;;;0.65;0.50;;;26.60;39.80;;;;;;5010733;28;20034;-83
2022/07/28 13:02:08;;;;;;;4.60;0.77;;;26.60;39.20;;;;;;5013504;28;20057;-82
2022/07/28 13:04:49;;;;;;;1.67;0.50;;;26.60;39.10;;;;;;5012093;28;20490;-83